sensor_id;sensor_type;location;lat;lon;timestamp;P1;durP1;ratioP1;P2;durP2;ratioP2
21354;SDS011;10835;50.148;19.760;2022-11-14T00:02:32;30.85;;;11.95;;
21354;SDS011;10835;50.148;19.760;2022-11-14T00:05:19;36.15;;;13.50;;
21354;SDS011;10835;50.148;19.760;2022-11-14T00:08:07;29.13;;;14.10;;
21354;SDS011;10835;50.148;19.760;2022-11-14T00:10:59;36.65;;;15.38;;
21354;SDS011;10835;50.148;19.760;2022-11-14T00:13:46;33.00;;;13.65;;
21354;SDS011;10835;50.148;19.760;2022-11-14T00:16:33;26.92;;;11.98;;
21354;SDS011;10835;50.148;19.760;2022-11-14T00:19:22;30.92;;;12.98;;
21354;SDS011;10835;50.148;19.760;2022-11-14T00:22:09;28.83;;;11.25;;
21354;SDS011;10835;50.148;19.760;2022-11-14T00:24:56;28.00;;;12.18;;
21354;SDS011;10835;50.148;19.760;2022-11-14T00:27:43;26.95;;;10.98;;
21354;SDS011;10835;50.148;19.760;2022-11-14T00:30:30;27.67;;;11.65;;
21354;SDS011;10835;50.148;19.760;2022-11-14T00:33:17;26.90;;;11.35;;
21354;SDS011;10835;50.148;19.760;2022-11-14T00:36:04;27.95;;;11.77;;
21354;SDS011;10835;50.148;19.760;2022-11-14T00:38:51;31.60;;;12.40;;
21354;SDS011;10835;50.148;19.760;2022-11-14T00:41:40;30.25;;;12.80;;
21354;SDS011;10835;50.148;19.760;2022-11-14T00:44:27;27.42;;;11.68;;
21354;SDS011;10835;50.148;19.760;2022-11-14T00:47:13;26.40;;;11.75;;
21354;SDS011;10835;50.148;19.760;2022-11-14T00:50:00;26.88;;;10.95;;
21354;SDS011;10835;50.148;19.760;2022-11-14T00:52:47;26.25;;;11.20;;
21354;SDS011;10835;50.148;19.760;2022-11-14T00:55:33;23.33;;;10.55;;
21354;SDS011;10835;50.148;19.760;2022-11-14T00:58:22;30.45;;;11.13;;
21354;SDS011;10835;50.148;19.760;2022-11-14T01:01:08;26.50;;;11.63;;
21354;SDS011;10835;50.148;19.760;2022-11-14T01:03:55;27.58;;;10.85;;
21354;SDS011;10835;50.148;19.760;2022-11-14T01:06:43;24.35;;;12.30;;
21354;SDS011;10835;50.148;19.760;2022-11-14T01:09:30;27.20;;;11.65;;
21354;SDS011;10835;50.148;19.760;2022-11-14T01:12:16;25.25;;;11.25;;
21354;SDS011;10835;50.148;19.760;2022-11-14T01:15:05;26.75;;;11.23;;
21354;SDS011;10835;50.148;19.760;2022-11-14T01:17:52;29.35;;;12.40;;
21354;SDS011;10835;50.148;19.760;2022-11-14T01:20:42;27.98;;;12.00;;
21354;SDS011;10835;50.148;19.760;2022-11-14T01:23:30;28.80;;;11.57;;
21354;SDS011;10835;50.148;19.760;2022-11-14T01:26:17;28.90;;;11.35;;
21354;SDS011;10835;50.148;19.760;2022-11-14T01:29:03;23.45;;;11.05;;
21354;SDS011;10835;50.148;19.760;2022-11-14T01:31:52;29.23;;;11.65;;
21354;SDS011;10835;50.148;19.760;2022-11-14T01:34:38;25.42;;;10.82;;
21354;SDS011;10835;50.148;19.760;2022-11-14T01:37:25;25.75;;;10.38;;
21354;SDS011;10835;50.148;19.760;2022-11-14T01:40:11;26.98;;;11.75;;
21354;SDS011;10835;50.148;19.760;2022-11-14T01:43:20;27.40;;;11.27;;
21354;SDS011;10835;50.148;19.760;2022-11-14T01:46:14;27.08;;;11.02;;
21354;SDS011;10835;50.148;19.760;2022-11-14T01:49:10;22.27;;;10.00;;
21354;SDS011;10835;50.148;19.760;2022-11-14T01:52:01;22.27;;;9.88;;
21354;SDS011;10835;50.148;19.760;2022-11-14T01:54:50;26.20;;;10.73;;
21354;SDS011;10835;50.148;19.760;2022-11-14T01:57:39;27.48;;;10.30;;
21354;SDS011;10835;50.148;19.760;2022-11-14T02:00:30;25.55;;;9.70;;
21354;SDS011;10835;50.148;19.760;2022-11-14T02:03:19;30.02;;;10.60;;
21354;SDS011;10835;50.148;19.760;2022-11-14T02:06:08;27.27;;;11.27;;
21354;SDS011;10835;50.148;19.760;2022-11-14T02:08:58;27.45;;;11.93;;
21354;SDS011;10835;50.148;19.760;2022-11-14T02:11:46;26.13;;;11.95;;
21354;SDS011;10835;50.148;19.760;2022-11-14T02:14:33;27.20;;;10.38;;
21354;SDS011;10835;50.148;19.760;2022-11-14T02:17:22;23.48;;;10.68;;
21354;SDS011;10835;50.148;19.760;2022-11-14T02:20:18;25.63;;;10.07;;
21354;SDS011;10835;50.148;19.760;2022-11-14T02:23:06;21.95;;;9.98;;
21354;SDS011;10835;50.148;19.760;2022-11-14T02:25:52;24.08;;;10.27;;
21354;SDS011;10835;50.148;19.760;2022-11-14T02:28:39;22.48;;;9.75;;
21354;SDS011;10835;50.148;19.760;2022-11-14T02:31:26;24.08;;;9.15;;
21354;SDS011;10835;50.148;19.760;2022-11-14T02:34:12;19.88;;;9.48;;
21354;SDS011;10835;50.148;19.760;2022-11-14T02:37:04;20.73;;;9.13;;
21354;SDS011;10835;50.148;19.760;2022-11-14T02:39:51;19.75;;;8.70;;
21354;SDS011;10835;50.148;19.760;2022-11-14T02:42:38;19.92;;;8.27;;
21354;SDS011;10835;50.148;19.760;2022-11-14T02:45:25;17.08;;;8.65;;
21354;SDS011;10835;50.148;19.760;2022-11-14T02:48:11;17.83;;;8.05;;
21354;SDS011;10835;50.148;19.760;2022-11-14T02:50:58;17.85;;;7.85;;
21354;SDS011;10835;50.148;19.760;2022-11-14T02:53:46;12.40;;;6.57;;
21354;SDS011;10835;50.148;19.760;2022-11-14T02:56:33;17.65;;;7.45;;
21354;SDS011;10835;50.148;19.760;2022-11-14T02:59:19;17.48;;;7.70;;
21354;SDS011;10835;50.148;19.760;2022-11-14T03:02:06;15.95;;;7.78;;
21354;SDS011;10835;50.148;19.760;2022-11-14T03:04:53;18.67;;;7.78;;
21354;SDS011;10835;50.148;19.760;2022-11-14T03:07:40;18.17;;;7.57;;
21354;SDS011;10835;50.148;19.760;2022-11-14T03:10:28;21.13;;;7.63;;
21354;SDS011;10835;50.148;19.760;2022-11-14T03:13:14;17.55;;;7.85;;
21354;SDS011;10835;50.148;19.760;2022-11-14T03:16:03;19.02;;;8.20;;
21354;SDS011;10835;50.148;19.760;2022-11-14T03:18:51;16.92;;;7.30;;
21354;SDS011;10835;50.148;19.760;2022-11-14T03:21:37;18.17;;;7.65;;
21354;SDS011;10835;50.148;19.760;2022-11-14T03:24:24;15.45;;;7.13;;
21354;SDS011;10835;50.148;19.760;2022-11-14T03:27:12;17.95;;;7.85;;
21354;SDS011;10835;50.148;19.760;2022-11-14T03:29:59;18.75;;;7.65;;
21354;SDS011;10835;50.148;19.760;2022-11-14T03:32:45;15.32;;;6.07;;
21354;SDS011;10835;50.148;19.760;2022-11-14T03:35:34;18.25;;;7.20;;
21354;SDS011;10835;50.148;19.760;2022-11-14T03:38:21;19.90;;;8.15;;
21354;SDS011;10835;50.148;19.760;2022-11-14T03:41:07;20.02;;;7.68;;
21354;SDS011;10835;50.148;19.760;2022-11-14T03:43:55;16.98;;;7.88;;
21354;SDS011;10835;50.148;19.760;2022-11-14T03:46:42;19.98;;;7.65;;
21354;SDS011;10835;50.148;19.760;2022-11-14T03:49:29;22.63;;;8.13;;
21354;SDS011;10835;50.148;19.760;2022-11-14T03:52:16;21.15;;;7.72;;
21354;SDS011;10835;50.148;19.760;2022-11-14T03:55:02;15.38;;;6.50;;
21354;SDS011;10835;50.148;19.760;2022-11-14T03:57:49;16.85;;;7.05;;
21354;SDS011;10835;50.148;19.760;2022-11-14T04:00:37;20.02;;;8.05;;
21354;SDS011;10835;50.148;19.760;2022-11-14T04:03:24;19.48;;;7.22;;
21354;SDS011;10835;50.148;19.760;2022-11-14T04:06:10;15.93;;;7.65;;
21354;SDS011;10835;50.148;19.760;2022-11-14T04:08:57;15.93;;;6.75;;
21354;SDS011;10835;50.148;19.760;2022-11-14T04:11:45;20.90;;;7.20;;
21354;SDS011;10835;50.148;19.760;2022-11-14T04:14:31;15.85;;;5.75;;
21354;SDS011;10835;50.148;19.760;2022-11-14T04:17:19;14.35;;;5.85;;
21354;SDS011;10835;50.148;19.760;2022-11-14T04:20:06;14.32;;;6.38;;
21354;SDS011;10835;50.148;19.760;2022-11-14T04:22:53;12.07;;;5.13;;
21354;SDS011;10835;50.148;19.760;2022-11-14T04:25:41;12.60;;;5.85;;
21354;SDS011;10835;50.148;19.760;2022-11-14T04:28:28;9.43;;;5.15;;
21354;SDS011;10835;50.148;19.760;2022-11-14T04:31:15;11.57;;;5.72;;
21354;SDS011;10835;50.148;19.760;2022-11-14T04:34:03;11.63;;;5.55;;
21354;SDS011;10835;50.148;19.760;2022-11-14T04:36:50;10.20;;;4.78;;
21354;SDS011;10835;50.148;19.760;2022-11-14T04:39:37;11.35;;;5.50;;
21354;SDS011;10835;50.148;19.760;2022-11-14T04:42:23;11.50;;;4.97;;
21354;SDS011;10835;50.148;19.760;2022-11-14T04:45:10;10.98;;;4.95;;
21354;SDS011;10835;50.148;19.760;2022-11-14T04:47:57;9.38;;;4.68;;
21354;SDS011;10835;50.148;19.760;2022-11-14T04:50:45;8.32;;;4.10;;
21354;SDS011;10835;50.148;19.760;2022-11-14T04:53:31;11.27;;;5.25;;
21354;SDS011;10835;50.148;19.760;2022-11-14T04:56:18;9.32;;;5.20;;
21354;SDS011;10835;50.148;19.760;2022-11-14T04:59:07;11.35;;;5.05;;
21354;SDS011;10835;50.148;19.760;2022-11-14T05:01:53;9.43;;;4.72;;
21354;SDS011;10835;50.148;19.760;2022-11-14T05:04:40;10.80;;;4.97;;
21354;SDS011;10835;50.148;19.760;2022-11-14T05:07:29;11.02;;;5.15;;
21354;SDS011;10835;50.148;19.760;2022-11-14T05:10:16;11.43;;;5.85;;
21354;SDS011;10835;50.148;19.760;2022-11-14T05:13:03;9.40;;;4.57;;
21354;SDS011;10835;50.148;19.760;2022-11-14T05:15:49;13.95;;;5.03;;
21354;SDS011;10835;50.148;19.760;2022-11-14T05:18:36;10.75;;;5.25;;
21354;SDS011;10835;50.148;19.760;2022-11-14T05:21:30;10.93;;;5.40;;
21354;SDS011;10835;50.148;19.760;2022-11-14T05:24:18;13.05;;;5.75;;
21354;SDS011;10835;50.148;19.760;2022-11-14T05:27:05;14.30;;;5.65;;
21354;SDS011;10835;50.148;19.760;2022-11-14T05:29:52;14.15;;;5.57;;
21354;SDS011;10835;50.148;19.760;2022-11-14T05:32:39;13.70;;;5.40;;
21354;SDS011;10835;50.148;19.760;2022-11-14T05:35:25;14.13;;;6.20;;
21354;SDS011;10835;50.148;19.760;2022-11-14T05:38:12;13.50;;;6.55;;
21354;SDS011;10835;50.148;19.760;2022-11-14T05:41:02;12.23;;;6.10;;
21354;SDS011;10835;50.148;19.760;2022-11-14T05:43:50;11.23;;;5.68;;
21354;SDS011;10835;50.148;19.760;2022-11-14T05:46:37;10.75;;;5.35;;
21354;SDS011;10835;50.148;19.760;2022-11-14T05:49:24;10.00;;;5.90;;
21354;SDS011;10835;50.148;19.760;2022-11-14T05:52:10;11.60;;;5.30;;
21354;SDS011;10835;50.148;19.760;2022-11-14T05:54:57;11.95;;;5.80;;
21354;SDS011;10835;50.148;19.760;2022-11-14T05:57:45;13.15;;;5.55;;
21354;SDS011;10835;50.148;19.760;2022-11-14T06:00:31;11.32;;;5.05;;
21354;SDS011;10835;50.148;19.760;2022-11-14T06:03:28;12.70;;;5.20;;
21354;SDS011;10835;50.148;19.760;2022-11-14T06:06:17;9.88;;;5.35;;
21354;SDS011;10835;50.148;19.760;2022-11-14T06:09:04;10.52;;;5.38;;
21354;SDS011;10835;50.148;19.760;2022-11-14T06:11:51;10.05;;;5.05;;
21354;SDS011;10835;50.148;19.760;2022-11-14T06:14:39;10.32;;;5.22;;
21354;SDS011;10835;50.148;19.760;2022-11-14T06:17:26;9.70;;;5.03;;
21354;SDS011;10835;50.148;19.760;2022-11-14T06:20:13;11.57;;;5.35;;
21354;SDS011;10835;50.148;19.760;2022-11-14T06:23:00;10.95;;;5.35;;
21354;SDS011;10835;50.148;19.760;2022-11-14T06:25:46;9.75;;;4.43;;
21354;SDS011;10835;50.148;19.760;2022-11-14T06:28:33;9.68;;;4.80;;
21354;SDS011;10835;50.148;19.760;2022-11-14T06:31:24;8.70;;;4.22;;
21354;SDS011;10835;50.148;19.760;2022-11-14T06:34:11;9.35;;;4.35;;
21354;SDS011;10835;50.148;19.760;2022-11-14T06:36:58;9.02;;;4.20;;
21354;SDS011;10835;50.148;19.760;2022-11-14T06:39:47;7.20;;;3.83;;
21354;SDS011;10835;50.148;19.760;2022-11-14T06:42:33;8.60;;;4.07;;
21354;SDS011;10835;50.148;19.760;2022-11-14T06:45:20;8.50;;;4.05;;
21354;SDS011;10835;50.148;19.760;2022-11-14T06:48:08;8.05;;;4.05;;
21354;SDS011;10835;50.148;19.760;2022-11-14T06:50:55;9.63;;;4.47;;
21354;SDS011;10835;50.148;19.760;2022-11-14T06:53:43;8.15;;;3.80;;
21354;SDS011;10835;50.148;19.760;2022-11-14T06:56:31;6.93;;;4.03;;
21354;SDS011;10835;50.148;19.760;2022-11-14T06:59:17;10.38;;;4.53;;
21354;SDS011;10835;50.148;19.760;2022-11-14T07:02:09;9.63;;;4.63;;
21354;SDS011;10835;50.148;19.760;2022-11-14T07:05:07;7.03;;;3.60;;
21354;SDS011;10835;50.148;19.760;2022-11-14T07:07:56;10.50;;;4.95;;
21354;SDS011;10835;50.148;19.760;2022-11-14T07:10:43;9.25;;;4.35;;
21354;SDS011;10835;50.148;19.760;2022-11-14T07:13:30;8.65;;;4.00;;
21354;SDS011;10835;50.148;19.760;2022-11-14T07:16:17;5.93;;;3.58;;
21354;SDS011;10835;50.148;19.760;2022-11-14T07:19:05;7.40;;;3.97;;
21354;SDS011;10835;50.148;19.760;2022-11-14T07:21:54;7.35;;;4.28;;
21354;SDS011;10835;50.148;19.760;2022-11-14T07:24:41;9.93;;;4.05;;
21354;SDS011;10835;50.148;19.760;2022-11-14T07:27:29;6.35;;;3.83;;
21354;SDS011;10835;50.148;19.760;2022-11-14T07:30:16;7.75;;;4.20;;
21354;SDS011;10835;50.148;19.760;2022-11-14T07:33:03;7.95;;;3.67;;
21354;SDS011;10835;50.148;19.760;2022-11-14T07:35:49;7.90;;;3.92;;
21354;SDS011;10835;50.148;19.760;2022-11-14T07:38:37;10.73;;;5.05;;
21354;SDS011;10835;50.148;19.760;2022-11-14T07:41:25;7.40;;;4.07;;
21354;SDS011;10835;50.148;19.760;2022-11-14T07:44:11;10.57;;;4.95;;
21354;SDS011;10835;50.148;19.760;2022-11-14T07:47:00;9.88;;;4.57;;
21354;SDS011;10835;50.148;19.760;2022-11-14T07:49:46;9.38;;;5.07;;
21354;SDS011;10835;50.148;19.760;2022-11-14T07:52:33;10.02;;;4.95;;
21354;SDS011;10835;50.148;19.760;2022-11-14T07:55:21;11.45;;;5.32;;
21354;SDS011;10835;50.148;19.760;2022-11-14T07:58:09;9.10;;;4.47;;
21354;SDS011;10835;50.148;19.760;2022-11-14T08:00:58;8.35;;;4.50;;
21354;SDS011;10835;50.148;19.760;2022-11-14T08:03:45;8.77;;;4.93;;
21354;SDS011;10835;50.148;19.760;2022-11-14T08:06:32;7.20;;;4.45;;
21354;SDS011;10835;50.148;19.760;2022-11-14T08:09:20;8.43;;;4.82;;
21354;SDS011;10835;50.148;19.760;2022-11-14T08:12:08;10.98;;;4.65;;
21354;SDS011;10835;50.148;19.760;2022-11-14T08:14:55;7.32;;;4.10;;
21354;SDS011;10835;50.148;19.760;2022-11-14T08:17:42;6.63;;;3.63;;
21354;SDS011;10835;50.148;19.760;2022-11-14T08:20:28;9.40;;;4.82;;
21354;SDS011;10835;50.148;19.760;2022-11-14T08:23:15;7.43;;;4.30;;
21354;SDS011;10835;50.148;19.760;2022-11-14T08:26:01;7.07;;;3.90;;
21354;SDS011;10835;50.148;19.760;2022-11-14T08:28:52;7.57;;;4.20;;
21354;SDS011;10835;50.148;19.760;2022-11-14T08:31:39;6.95;;;3.90;;
21354;SDS011;10835;50.148;19.760;2022-11-14T08:34:26;7.72;;;4.40;;
21354;SDS011;10835;50.148;19.760;2022-11-14T08:37:13;8.40;;;4.88;;
21354;SDS011;10835;50.148;19.760;2022-11-14T08:39:59;9.40;;;5.25;;
21354;SDS011;10835;50.148;19.760;2022-11-14T08:42:46;8.40;;;4.65;;
21354;SDS011;10835;50.148;19.760;2022-11-14T08:45:34;7.70;;;4.40;;
21354;SDS011;10835;50.148;19.760;2022-11-14T08:48:21;8.10;;;4.55;;
21354;SDS011;10835;50.148;19.760;2022-11-14T08:51:08;8.43;;;4.18;;
21354;SDS011;10835;50.148;19.760;2022-11-14T08:53:54;7.55;;;3.75;;
21354;SDS011;10835;50.148;19.760;2022-11-14T08:56:41;7.00;;;4.30;;
21354;SDS011;10835;50.148;19.760;2022-11-14T08:59:28;8.07;;;4.35;;
21354;SDS011;10835;50.148;19.760;2022-11-14T09:02:16;7.05;;;4.00;;
21354;SDS011;10835;50.148;19.760;2022-11-14T09:05:03;8.88;;;4.05;;
21354;SDS011;10835;50.148;19.760;2022-11-14T09:07:50;7.53;;;3.92;;
21354;SDS011;10835;50.148;19.760;2022-11-14T09:10:36;8.07;;;4.13;;
21354;SDS011;10835;50.148;19.760;2022-11-14T09:13:23;7.80;;;4.22;;
21354;SDS011;10835;50.148;19.760;2022-11-14T09:16:11;8.57;;;4.47;;
21354;SDS011;10835;50.148;19.760;2022-11-14T09:19:00;7.53;;;4.25;;
21354;SDS011;10835;50.148;19.760;2022-11-14T09:21:46;7.78;;;4.20;;
21354;SDS011;10835;50.148;19.760;2022-11-14T09:24:33;8.13;;;4.30;;
21354;SDS011;10835;50.148;19.760;2022-11-14T09:27:20;6.47;;;3.75;;
21354;SDS011;10835;50.148;19.760;2022-11-14T09:30:07;7.40;;;3.95;;
21354;SDS011;10835;50.148;19.760;2022-11-14T09:32:57;8.00;;;4.15;;
21354;SDS011;10835;50.148;19.760;2022-11-14T09:35:46;8.23;;;3.83;;
21354;SDS011;10835;50.148;19.760;2022-11-14T09:38:32;7.22;;;3.92;;
21354;SDS011;10835;50.148;19.760;2022-11-14T09:41:23;7.20;;;4.20;;
21354;SDS011;10835;50.148;19.760;2022-11-14T09:47:17;7.95;;;4.70;;
21354;SDS011;10835;50.148;19.760;2022-11-14T09:50:10;8.90;;;5.18;;
21354;SDS011;10835;50.148;19.760;2022-11-14T09:53:02;11.98;;;5.95;;
21354;SDS011;10835;50.148;19.760;2022-11-14T09:55:52;9.70;;;5.28;;
21354;SDS011;10835;50.148;19.760;2022-11-14T09:58:39;9.85;;;4.72;;
21354;SDS011;10835;50.148;19.760;2022-11-14T10:01:29;9.18;;;4.65;;
21354;SDS011;10835;50.148;19.760;2022-11-14T10:04:24;11.25;;;5.13;;
21354;SDS011;10835;50.148;19.760;2022-11-14T10:07:30;8.27;;;4.50;;
21354;SDS011;10835;50.148;19.760;2022-11-14T10:10:32;9.00;;;5.10;;
21354;SDS011;10835;50.148;19.760;2022-11-14T10:13:35;9.43;;;4.68;;
21354;SDS011;10835;50.148;19.760;2022-11-14T10:16:45;12.80;;;5.63;;
21354;SDS011;10835;50.148;19.760;2022-11-14T10:19:41;11.35;;;5.97;;
21354;SDS011;10835;50.148;19.760;2022-11-14T10:22:37;11.07;;;5.75;;
21354;SDS011;10835;50.148;19.760;2022-11-14T10:25:37;9.32;;;4.97;;
21354;SDS011;10835;50.148;19.760;2022-11-14T10:28:38;9.73;;;4.60;;
21354;SDS011;10835;50.148;19.760;2022-11-14T10:31:45;11.20;;;5.22;;
21354;SDS011;10835;50.148;19.760;2022-11-14T10:34:40;7.55;;;4.47;;
21354;SDS011;10835;50.148;19.760;2022-11-14T10:37:32;8.95;;;5.15;;
21354;SDS011;10835;50.148;19.760;2022-11-14T10:40:28;10.10;;;4.95;;
21354;SDS011;10835;50.148;19.760;2022-11-14T10:43:23;13.57;;;6.43;;
21354;SDS011;10835;50.148;19.760;2022-11-14T10:46:15;11.43;;;5.65;;
21354;SDS011;10835;50.148;19.760;2022-11-14T10:49:11;10.10;;;5.20;;
21354;SDS011;10835;50.148;19.760;2022-11-14T10:52:02;8.15;;;4.80;;
21354;SDS011;10835;50.148;19.760;2022-11-14T10:54:52;8.98;;;4.82;;
21354;SDS011;10835;50.148;19.760;2022-11-14T10:57:44;10.80;;;5.43;;
21354;SDS011;10835;50.148;19.760;2022-11-14T11:00:32;9.77;;;4.78;;
21354;SDS011;10835;50.148;19.760;2022-11-14T11:03:19;9.18;;;5.05;;
21354;SDS011;10835;50.148;19.760;2022-11-14T11:06:25;8.80;;;5.13;;
21354;SDS011;10835;50.148;19.760;2022-11-14T11:09:13;7.20;;;4.25;;
21354;SDS011;10835;50.148;19.760;2022-11-14T11:12:23;8.27;;;5.07;;
21354;SDS011;10835;50.148;19.760;2022-11-14T11:15:24;10.43;;;5.63;;
21354;SDS011;10835;50.148;19.760;2022-11-14T11:18:24;9.40;;;4.82;;
21354;SDS011;10835;50.148;19.760;2022-11-14T11:21:13;9.75;;;5.25;;
21354;SDS011;10835;50.148;19.760;2022-11-14T11:24:01;6.40;;;3.65;;
21354;SDS011;10835;50.148;19.760;2022-11-14T11:26:48;7.63;;;4.55;;
21354;SDS011;10835;50.148;19.760;2022-11-14T11:30:16;18.17;;;9.40;;
21354;SDS011;10835;50.148;19.760;2022-11-14T11:33:14;8.35;;;5.25;;
21354;SDS011;10835;50.148;19.760;2022-11-14T11:36:04;10.30;;;5.65;;
21354;SDS011;10835;50.148;19.760;2022-11-14T11:38:56;6.03;;;4.25;;
21354;SDS011;10835;50.148;19.760;2022-11-14T11:41:44;8.50;;;4.95;;
21354;SDS011;10835;50.148;19.760;2022-11-14T11:44:52;10.75;;;5.80;;
21354;SDS011;10835;50.148;19.760;2022-11-14T11:47:45;11.45;;;5.32;;
21354;SDS011;10835;50.148;19.760;2022-11-14T11:50:38;13.20;;;5.57;;
21354;SDS011;10835;50.148;19.760;2022-11-14T11:53:28;11.55;;;5.60;;
21354;SDS011;10835;50.148;19.760;2022-11-14T11:56:20;12.82;;;6.38;;
21354;SDS011;10835;50.148;19.760;2022-11-14T11:59:16;10.77;;;5.70;;
21354;SDS011;10835;50.148;19.760;2022-11-14T12:02:16;7.57;;;4.82;;
21354;SDS011;10835;50.148;19.760;2022-11-14T12:05:09;12.77;;;6.40;;
21354;SDS011;10835;50.148;19.760;2022-11-14T12:07:59;8.98;;;5.68;;
21354;SDS011;10835;50.148;19.760;2022-11-14T12:10:50;10.40;;;5.22;;
21354;SDS011;10835;50.148;19.760;2022-11-14T12:13:59;9.88;;;5.13;;
21354;SDS011;10835;50.148;19.760;2022-11-14T12:17:11;10.82;;;5.47;;
21354;SDS011;10835;50.148;19.760;2022-11-14T12:20:30;8.52;;;5.30;;
21354;SDS011;10835;50.148;19.760;2022-11-14T12:23:51;11.40;;;5.47;;
21354;SDS011;10835;50.148;19.760;2022-11-14T12:27:02;10.27;;;5.68;;
21354;SDS011;10835;50.148;19.760;2022-11-14T12:30:07;10.77;;;4.82;;
21354;SDS011;10835;50.148;19.760;2022-11-14T12:33:02;13.23;;;5.38;;
21354;SDS011;10835;50.148;19.760;2022-11-14T12:35:53;14.73;;;6.97;;
21354;SDS011;10835;50.148;19.760;2022-11-14T12:38:44;9.65;;;5.65;;
21354;SDS011;10835;50.148;19.760;2022-11-14T12:41:33;11.43;;;5.63;;
21354;SDS011;10835;50.148;19.760;2022-11-14T12:44:32;14.27;;;7.10;;
21354;SDS011;10835;50.148;19.760;2022-11-14T12:47:22;14.75;;;7.03;;
21354;SDS011;10835;50.148;19.760;2022-11-14T12:50:29;11.65;;;6.30;;
21354;SDS011;10835;50.148;19.760;2022-11-14T12:53:37;12.93;;;6.20;;
21354;SDS011;10835;50.148;19.760;2022-11-14T12:56:41;14.70;;;6.82;;
21354;SDS011;10835;50.148;19.760;2022-11-14T12:59:39;13.75;;;6.25;;
21354;SDS011;10835;50.148;19.760;2022-11-14T13:05:54;12.27;;;6.78;;
21354;SDS011;10835;50.148;19.760;2022-11-14T13:08:54;13.93;;;7.57;;
21354;SDS011;10835;50.148;19.760;2022-11-14T13:11:51;14.05;;;6.72;;
21354;SDS011;10835;50.148;19.760;2022-11-14T13:15:20;16.88;;;7.35;;
21354;SDS011;10835;50.148;19.760;2022-11-14T13:18:33;11.23;;;6.38;;
21354;SDS011;10835;50.148;19.760;2022-11-14T13:21:38;13.73;;;7.45;;
21354;SDS011;10835;50.148;19.760;2022-11-14T13:25:22;17.15;;;7.68;;
21354;SDS011;10835;50.148;19.760;2022-11-14T13:31:43;15.55;;;7.90;;
21354;SDS011;10835;50.148;19.760;2022-11-14T13:34:38;18.70;;;8.18;;
21354;SDS011;10835;50.148;19.760;2022-11-14T13:37:36;18.23;;;8.82;;
21354;SDS011;10835;50.148;19.760;2022-11-14T13:40:42;16.65;;;8.27;;
21354;SDS011;10835;50.148;19.760;2022-11-14T13:43:40;21.85;;;8.60;;
21354;SDS011;10835;50.148;19.760;2022-11-14T13:46:43;20.88;;;8.43;;
21354;SDS011;10835;50.148;19.760;2022-11-14T13:49:52;16.90;;;7.15;;
21354;SDS011;10835;50.148;19.760;2022-11-14T13:52:45;20.92;;;7.57;;
21354;SDS011;10835;50.148;19.760;2022-11-14T13:55:37;14.50;;;7.53;;
21354;SDS011;10835;50.148;19.760;2022-11-14T14:02:15;13.75;;;7.13;;
21354;SDS011;10835;50.148;19.760;2022-11-14T14:05:25;15.95;;;7.80;;
21354;SDS011;10835;50.148;19.760;2022-11-14T14:08:19;17.83;;;7.78;;
21354;SDS011;10835;50.148;19.760;2022-11-14T14:11:43;18.25;;;8.45;;
21354;SDS011;10835;50.148;19.760;2022-11-14T14:14:44;18.20;;;8.10;;
21354;SDS011;10835;50.148;19.760;2022-11-14T14:17:55;21.77;;;9.68;;
21354;SDS011;10835;50.148;19.760;2022-11-14T14:20:50;29.90;;;9.13;;
21354;SDS011;10835;50.148;19.760;2022-11-14T14:23:43;23.88;;;9.25;;
21354;SDS011;10835;50.148;19.760;2022-11-14T14:26:36;27.90;;;9.55;;
21354;SDS011;10835;50.148;19.760;2022-11-14T14:29:41;18.75;;;8.68;;
21354;SDS011;10835;50.148;19.760;2022-11-14T14:32:37;18.77;;;8.90;;
21354;SDS011;10835;50.148;19.760;2022-11-14T14:35:25;19.58;;;8.48;;
21354;SDS011;10835;50.148;19.760;2022-11-14T14:38:20;21.52;;;9.50;;
21354;SDS011;10835;50.148;19.760;2022-11-14T14:41:09;20.83;;;9.65;;
21354;SDS011;10835;50.148;19.760;2022-11-14T14:43:57;19.23;;;8.32;;
21354;SDS011;10835;50.148;19.760;2022-11-14T14:46:46;22.10;;;9.88;;
21354;SDS011;10835;50.148;19.760;2022-11-14T14:49:33;20.10;;;8.90;;
21354;SDS011;10835;50.148;19.760;2022-11-14T14:52:25;23.00;;;9.45;;
21354;SDS011;10835;50.148;19.760;2022-11-14T14:55:18;29.42;;;11.80;;
21354;SDS011;10835;50.148;19.760;2022-11-14T14:58:11;21.73;;;9.25;;
21354;SDS011;10835;50.148;19.760;2022-11-14T15:01:08;23.65;;;10.98;;
21354;SDS011;10835;50.148;19.760;2022-11-14T15:04:00;23.35;;;12.05;;
21354;SDS011;10835;50.148;19.760;2022-11-14T15:06:49;24.55;;;10.65;;
21354;SDS011;10835;50.148;19.760;2022-11-14T15:09:37;27.45;;;12.20;;
21354;SDS011;10835;50.148;19.760;2022-11-14T15:12:24;35.97;;;13.45;;
21354;SDS011;10835;50.148;19.760;2022-11-14T15:15:12;34.58;;;12.65;;
21354;SDS011;10835;50.148;19.760;2022-11-14T15:18:01;28.17;;;11.77;;
21354;SDS011;10835;50.148;19.760;2022-11-14T15:21:08;29.92;;;12.18;;
21354;SDS011;10835;50.148;19.760;2022-11-14T15:23:58;36.60;;;14.32;;
21354;SDS011;10835;50.148;19.760;2022-11-14T15:26:47;35.63;;;13.07;;
21354;SDS011;10835;50.148;19.760;2022-11-14T15:29:35;40.25;;;13.82;;
21354;SDS011;10835;50.148;19.760;2022-11-14T15:32:30;34.83;;;14.07;;
21354;SDS011;10835;50.148;19.760;2022-11-14T15:35:24;32.03;;;13.30;;
21354;SDS011;10835;50.148;19.760;2022-11-14T15:38:20;31.13;;;13.75;;
21354;SDS011;10835;50.148;19.760;2022-11-14T15:41:28;27.30;;;12.75;;
21354;SDS011;10835;50.148;19.760;2022-11-14T15:44:28;30.67;;;12.93;;
21354;SDS011;10835;50.148;19.760;2022-11-14T15:47:19;23.85;;;10.70;;
21354;SDS011;10835;50.148;19.760;2022-11-14T15:50:21;20.70;;;11.10;;
21354;SDS011;10835;50.148;19.760;2022-11-14T15:53:15;25.17;;;10.55;;
21354;SDS011;10835;50.148;19.760;2022-11-14T15:56:09;21.27;;;9.20;;
21354;SDS011;10835;50.148;19.760;2022-11-14T15:58:57;26.35;;;11.45;;
21354;SDS011;10835;50.148;19.760;2022-11-14T16:01:44;25.67;;;11.35;;
21354;SDS011;10835;50.148;19.760;2022-11-14T16:04:32;24.08;;;10.15;;
21354;SDS011;10835;50.148;19.760;2022-11-14T16:07:20;25.50;;;11.13;;
21354;SDS011;10835;50.148;19.760;2022-11-14T16:10:12;26.98;;;11.45;;
21354;SDS011;10835;50.148;19.760;2022-11-14T16:13:01;20.73;;;9.80;;
21354;SDS011;10835;50.148;19.760;2022-11-14T16:15:48;21.92;;;9.95;;
21354;SDS011;10835;50.148;19.760;2022-11-14T16:18:34;22.23;;;9.90;;
21354;SDS011;10835;50.148;19.760;2022-11-14T16:21:21;25.73;;;11.40;;
21354;SDS011;10835;50.148;19.760;2022-11-14T16:24:10;24.55;;;10.55;;
21354;SDS011;10835;50.148;19.760;2022-11-14T16:27:00;19.83;;;9.45;;
21354;SDS011;10835;50.148;19.760;2022-11-14T16:29:48;23.27;;;9.20;;
21354;SDS011;10835;50.148;19.760;2022-11-14T16:32:35;22.08;;;10.57;;
21354;SDS011;10835;50.148;19.760;2022-11-14T16:35:22;23.75;;;10.23;;
21354;SDS011;10835;50.148;19.760;2022-11-14T16:38:11;27.05;;;10.95;;
21354;SDS011;10835;50.148;19.760;2022-11-14T16:40:58;25.63;;;10.52;;
21354;SDS011;10835;50.148;19.760;2022-11-14T16:43:45;24.20;;;11.40;;
21354;SDS011;10835;50.148;19.760;2022-11-14T16:46:33;19.83;;;10.45;;
21354;SDS011;10835;50.148;19.760;2022-11-14T16:49:20;23.35;;;11.73;;
21354;SDS011;10835;50.148;19.760;2022-11-14T16:52:07;28.63;;;12.77;;
21354;SDS011;10835;50.148;19.760;2022-11-14T16:54:55;26.58;;;11.50;;